Time;durP1;ratioP1;P1;durP2;ratioP2;P2;SDS_P1;SDS_P2;PMS_P1;PMS_P2;Temp;Humidity;BMP_temperature;BMP_pressure;BME280_temperature;BME280_humidity;BME280_pressure;Samples;Min_cycle;Max_cycle;Signal;HPM_P1;HPM_P2
2023/03/19 00:01:05;;;;;;;6.40;5.50;;;;;;;;;;5073745;28;20209;-84
2023/03/19 00:03:32;;;;;;;8.33;5.53;;;;;;;;;;5072941;28;20312;-85
2023/03/19 00:05:59;;;;;;;5.67;5.17;;;;;;;;;;5073501;28;20209;-84
2023/03/19 00:08:26;;;;;;;8.20;5.53;;;;;;;;;;5072542;28;20237;-85
2023/03/19 00:10:53;;;;;;;8.90;5.20;;;;;;;;;;5073637;28;20209;-84
2023/03/19 00:13:20;;;;;;;8.03;4.90;;;;;;;;;;5072676;28;20236;-84
2023/03/19 00:15:48;;;;;;;5.67;5.00;;;;;;;;;;5073222;28;20676;-85
2023/03/19 00:18:16;;;;;;;6.17;4.77;;;;;;;;;;5072654;28;20245;-84
2023/03/19 00:20:43;;;;;;;5.53;4.57;;;;;;;;;;5073266;28;20233;-85
2023/03/19 00:23:11;;;;;;;6.83;4.60;;;;;;;;;;5072253;28;20286;-84
2023/03/19 00:25:38;;;;;;;9.97;6.10;;;;;;;;;;5072839;28;20759;-85
2023/03/19 00:28:05;;;;;;;6.67;4.80;;;;;;;;;;5072581;28;20267;-85
2023/03/19 00:30:32;;;;;;;7.43;4.80;;;;;;;;;;5073230;28;20217;-84
2023/03/19 00:32:59;;;;;;;6.80;4.20;;;;;;;;;;5072348;28;20229;-86
2023/03/19 00:35:27;;;;;;;5.97;4.70;;;;;;;;;;5073002;28;20206;-85
2023/03/19 00:37:55;;;;;;;6.17;4.93;;;;;;;;;;5071968;28;20716;-85
2023/03/19 00:40:22;;;;;;;4.97;4.47;;;;;;;;;;5072797;28;20244;-85
2023/03/19 00:42:49;;;;;;;6.17;4.70;;;;;;;;;;5072148;28;20240;-85
2023/03/19 00:45:17;;;;;;;7.93;4.87;;;;;;;;;;5072735;28;20661;-85
2023/03/19 00:47:44;;;;;;;5.20;4.67;;;;;;;;;;5072752;28;20255;-85
2023/03/19 00:50:12;;;;;;;6.73;4.60;;;;;;;;;;5072880;28;20206;-85
2023/03/19 00:52:40;;;;;;;6.67;4.20;;;;;;;;;;5054859;28;20234;-85
2023/03/19 00:55:07;;;;;;;4.30;3.90;;;;;;;;;;5052710;28;20210;-85
2023/03/19 00:57:35;;;;;;;6.20;4.90;;;;;;;;;;5069698;28;20241;-85
2023/03/19 01:00:02;;;;;;;6.00;4.40;;;;;;;;;;5072693;28;20233;-85
2023/03/19 01:02:29;;;;;;;6.80;4.63;;;;;;;;;;5071843;28;20299;-85
2023/03/19 01:04:56;;;;;;;5.80;4.70;;;;;;;;;;5072617;28;20205;-85
2023/03/19 01:07:24;;;;;;;6.37;4.67;;;;;;;;;;5072029;28;20595;-85
2023/03/19 01:09:52;;;;;;;6.33;4.47;;;;;;;;;;5072026;28;20241;-85
2023/03/19 01:12:19;;;;;;;6.10;4.07;;;;;;;;;;5071854;28;20255;-84
2023/03/19 01:14:46;;;;;;;7.40;5.23;;;;;;;;;;5072511;28;20296;-85
2023/03/19 01:17:13;;;;;;;5.10;4.27;;;;;;;;;;5071864;28;20240;-84
2023/03/19 01:19:40;;;;;;;5.30;4.37;;;;;;;;;;5071138;28;20600;-84
2023/03/19 01:22:08;;;;;;;5.77;4.20;;;;;;;;;;5071797;28;20232;-85
2023/03/19 01:24:35;;;;;;;5.73;3.90;;;;;;;;;;5072362;28;20270;-85
2023/03/19 01:27:03;;;;;;;5.00;4.00;;;;;;;;;;5071445;28;20689;-84
2023/03/19 01:29:30;;;;;;;6.03;4.13;;;;;;;;;;5067663;28;20728;-85
2023/03/19 01:31:57;;;;;;;7.00;4.20;;;;;;;;;;5051501;28;20242;-85
2023/03/19 01:34:25;;;;;;;5.27;3.83;;;;;;;;;;5052106;28;20214;-84
2023/03/19 01:36:52;;;;;;;7.73;4.10;;;;;;;;;;5051215;28;20665;-85
2023/03/19 01:39:19;;;;;;;5.97;4.60;;;;;;;;;;5052314;28;20653;-84
2023/03/19 01:41:46;;;;;;;7.20;4.47;;;;;;;;;;5053324;28;20210;-85
2023/03/19 01:44:25;;;;;;;4.53;4.10;;;;;;;;;;5071624;28;20225;-85
2023/03/19 01:46:52;;;;;;;5.00;4.37;;;;;;;;;;5071706;28;20288;-85
2023/03/19 01:49:21;;;;;;;9.10;4.30;;;;;;;;;;5070896;28;20233;-84
2023/03/19 01:51:49;;;;;;;9.37;4.00;;;;;;;;;;5051249;28;20220;-85
2023/03/19 01:54:19;;;;;;;7.20;3.83;;;;;;;;;;5051840;28;20559;-85
2023/03/19 01:56:47;;;;;;;6.33;4.03;;;;;;;;;;5051425;28;20325;-85
2023/03/19 01:59:16;;;;;;;9.40;4.43;;;;;;;;;;5058541;28;20232;-85
2023/03/19 02:01:48;;;;;;;5.97;3.93;;;;;;;;;;5062430;28;20202;-85
2023/03/19 02:04:15;;;;;;;6.80;4.10;;;;;;;;;;5069865;28;20221;-84
2023/03/19 02:06:43;;;;;;;6.00;3.70;;;;;;;;;;5071397;28;20217;-84
2023/03/19 02:09:10;;;;;;;6.40;4.00;;;;;;;;;;5071362;28;20240;-84
2023/03/19 02:11:37;;;;;;;6.77;4.30;;;;;;;;;;5051202;28;20206;-84
2023/03/19 02:14:05;;;;;;;6.03;4.37;;;;;;;;;;5051807;28;20289;-84
2023/03/19 02:16:32;;;;;;;7.93;4.83;;;;;;;;;;5063065;28;20606;-84
2023/03/19 02:19:00;;;;;;;5.60;4.27;;;;;;;;;;5070736;28;20233;-84
2023/03/19 02:21:27;;;;;;;4.73;4.30;;;;;;;;;;5071433;28;20216;-84
2023/03/19 02:23:57;;;;;;;5.77;4.50;;;;;;;;;;5070838;28;20233;-84
2023/03/19 02:26:27;;;;;;;5.37;4.00;;;;;;;;;;5071198;28;20289;-84
2023/03/19 02:28:55;;;;;;;4.93;4.43;;;;;;;;;;5070943;28;20240;-84
2023/03/19 02:31:22;;;;;;;7.73;4.90;;;;;;;;;;5072332;28;20294;-84
2023/03/19 02:33:57;;;;;;;7.40;4.37;;;;;;;;;;5063319;28;20228;-84
2023/03/19 02:36:25;;;;;;;9.33;4.87;;;;;;;;;;5075274;28;20189;-85
2023/03/19 02:38:53;;;;;;;8.63;4.73;;;;;;;;;;5074267;28;20310;-84
2023/03/19 02:41:20;;;;;;;6.50;4.60;;;;;;;;;;5073976;28;20212;-84
2023/03/19 02:43:49;;;;;;;8.03;4.67;;;;;;;;;;5074331;28;20256;-84
2023/03/19 02:46:16;;;;;;;5.07;4.57;;;;;;;;;;5070385;28;20209;-84
2023/03/19 02:48:43;;;;;;;5.87;4.47;;;;;;;;;;5074256;28;20272;-85
2023/03/19 02:51:10;;;;;;;5.80;4.30;;;;;;;;;;5074789;28;20233;-84
2023/03/19 02:53:37;;;;;;;5.43;4.27;;;;;;;;;;5074525;28;20264;-84
2023/03/19 02:56:04;;;;;;;4.27;3.83;;;;;;;;;;5074642;28;20213;-84
2023/03/19 02:58:31;;;;;;;5.20;4.27;;;;;;;;;;5056704;28;20242;-84
2023/03/19 03:01:00;;;;;;;4.53;3.83;;;;;;;;;;5054487;28;20573;-84
2023/03/19 03:03:27;;;;;;;5.53;4.33;;;;;;;;;;5053827;28;20238;-84
2023/03/19 03:05:54;;;;;;;5.53;4.40;;;;;;;;;;5070844;28;20229;-84
2023/03/19 03:08:21;;;;;;;6.87;4.37;;;;;;;;;;5073013;28;20237;-84
2023/03/19 03:10:48;;;;;;;5.00;4.13;;;;;;;;;;5074497;28;20209;-84
2023/03/19 03:13:16;;;;;;;5.23;4.27;;;;;;;;;;5073637;28;20237;-84
2023/03/19 03:15:43;;;;;;;5.73;4.53;;;;;;;;;;5074646;28;20300;-84
2023/03/19 03:18:11;;;;;;;5.93;4.33;;;;;;;;;;5073848;28;20256;-84
2023/03/19 03:20:38;;;;;;;4.30;3.90;;;;;;;;;;5074544;28;20217;-84
2023/03/19 03:23:05;;;;;;;5.67;3.47;;;;;;;;;;5073494;28;20229;-84
2023/03/19 03:25:32;;;;;;;7.10;4.00;;;;;;;;;;5062470;28;20214;-84
2023/03/19 03:28:00;;;;;;;5.23;4.13;;;;;;;;;;5053652;28;20236;-85
2023/03/19 03:30:27;;;;;;;5.43;3.67;;;;;;;;;;5053883;28;20693;-84
2023/03/19 03:32:54;;;;;;;7.10;3.37;;;;;;;;;;5053435;28;20237;-84
2023/03/19 03:35:22;;;;;;;4.20;3.20;;;;;;;;;;5057205;28;20553;-84
2023/03/19 03:37:49;;;;;;;5.03;3.40;;;;;;;;;;5073531;28;20229;-84
2023/03/19 03:40:16;;;;;;;6.10;3.93;;;;;;;;;;5061945;28;20591;-84
2023/03/19 03:42:44;;;;;;;3.63;3.33;;;;;;;;;;5052606;28;20261;-84
2023/03/19 03:45:12;;;;;;;5.67;3.67;;;;;;;;;;5053570;28;20710;-85
2023/03/19 03:47:39;;;;;;;3.83;3.43;;;;;;;;;;5053278;28;20600;-84
2023/03/19 03:50:09;;;;;;;5.23;3.37;;;;;;;;;;5053514;28;20229;-84
2023/03/19 03:52:38;;;;;;;6.80;3.43;;;;;;;;;;5052928;28;20323;-84
2023/03/19 03:55:06;;;;;;;4.03;3.63;;;;;;;;;;5054300;28;20210;-84
2023/03/19 03:57:33;;;;;;;6.03;3.60;;;;;;;;;;5068098;28;20229;-84
2023/03/19 04:00:00;;;;;;;5.20;3.27;;;;;;;;;;5053685;28;20586;-84
2023/03/19 04:02:27;;;;;;;4.53;3.30;;;;;;;;;;5053612;28;20234;-84
2023/03/19 04:04:54;;;;;;;6.07;3.23;;;;;;;;;;5073600;28;20217;-84
2023/03/19 04:07:22;;;;;;;5.50;2.90;;;;;;;;;;5072180;28;20237;-84
2023/03/19 04:09:50;;;;;;;7.30;3.70;;;;;;;;;;5072966;28;20236;-84
2023/03/19 04:12:17;;;;;;;5.13;3.10;;;;;;;;;;5072584;28;20709;-84
2023/03/19 04:14:45;;;;;;;3.80;2.63;;;;;;;;;;5073378;28;20289;-84
2023/03/19 04:17:12;;;;;;;8.57;3.30;;;;;;;;;;5072730;28;20233;-85
2023/03/19 04:19:39;;;;;;;4.47;3.10;;;;;;;;;;5072885;28;20229;-84
2023/03/19 04:22:07;;;;;;;4.83;3.67;;;;;;;;;;5072245;28;20229;-84
2023/03/19 04:24:34;;;;;;;8.07;3.67;;;;;;;;;;5056804;28;20222;-84
2023/03/19 04:27:03;;;;;;;3.40;3.10;;;;;;;;;;5053177;28;20229;-84
2023/03/19 04:29:30;;;;;;;5.30;3.57;;;;;;;;;;5052963;28;20237;-84
2023/03/19 04:31:57;;;;;;;3.47;2.93;;;;;;;;;;5060513;28;20236;-84
2023/03/19 04:34:24;;;;;;;6.87;3.30;;;;;;;;;;5055409;28;20681;-84
2023/03/19 04:36:52;;;;;;;5.33;3.17;;;;;;;;;;5052380;28;20297;-85
2023/03/19 04:39:19;;;;;;;4.97;3.10;;;;;;;;;;5052816;28;20229;-84
2023/03/19 04:41:46;;;;;;;5.77;2.97;;;;;;;;;;5052006;28;20209;-85
2023/03/19 04:44:14;;;;;;;3.10;2.83;;;;;;;;;;5052361;28;20228;-84
2023/03/19 04:46:43;;;;;;;3.93;2.80;;;;;;;;;;5051568;28;20206;-84
2023/03/19 04:49:10;;;;;;;4.43;2.90;;;;;;;;;;5052391;28;20226;-84
2023/03/19 04:51:37;;;;;;;4.10;3.20;;;;;;;;;;5055600;28;20197;-84
2023/03/19 04:54:05;;;;;;;4.47;2.87;;;;;;;;;;5071998;28;20186;-84
2023/03/19 04:56:32;;;;;;;3.73;2.80;;;;;;;;;;5072854;28;20622;-83
2023/03/19 04:58:59;;;;;;;3.77;3.33;;;;;;;;;;5071790;28;20233;-85
2023/03/19 05:01:28;;;;;;;3.67;3.23;;;;;;;;;;5071361;28;20280;-84
2023/03/19 05:03:55;;;;;;;7.93;2.67;;;;;;;;;;5071957;28;20580;-84
2023/03/19 05:06:23;;;;;;;3.20;2.90;;;;;;;;;;5072785;28;20209;-84
2023/03/19 05:08:50;;;;;;;5.23;3.10;;;;;;;;;;5087214;22;20263;-91
2023/03/19 05:11:17;;;;;;;3.43;3.03;;;;;;;;;;5074853;28;20202;-91
2023/03/19 05:13:44;;;;;;;10.33;3.60;;;;;;;;;;5093595;28;20228;-90
2023/03/19 05:16:12;;;;;;;4.00;3.00;;;;;;;;;;5091021;28;20206;-91
2023/03/19 05:18:41;;;;;;;5.50;3.27;;;;;;;;;;5068350;28;20240;-91
2023/03/19 05:21:11;;;;;;;7.20;3.00;;;;;;;;;;5053568;28;20297;-91
2023/03/19 05:23:38;;;;;;;7.47;3.00;;;;;;;;;;5053420;28;20238;-91
2023/03/19 05:26:05;;;;;;;7.73;2.83;;;;;;;;;;5054180;28;20214;-91
2023/03/19 05:28:32;;;;;;;4.33;3.00;;;;;;;;;;5053088;28;20288;-91
2023/03/19 05:30:59;;;;;;;4.17;3.00;;;;;;;;;;5053603;28;20213;-91
2023/03/19 05:33:27;;;;;;;3.10;2.80;;;;;;;;;;5052738;28;20241;-91
2023/03/19 05:35:56;;;;;;;7.50;3.17;;;;;;;;;;5053762;28;20201;-91
2023/03/19 05:38:23;;;;;;;3.67;3.10;;;;;;;;;;5052904;28;20265;-91
2023/03/19 05:40:50;;;;;;;3.27;2.93;;;;;;;;;;5053558;28;20203;-92
2023/03/19 05:43:17;;;;;;;4.53;3.37;;;;;;;;;;5069043;28;20605;-91
2023/03/19 05:45:50;;;;;;;4.47;3.23;;;;;;;;;;5073090;28;20221;-91
2023/03/19 05:48:17;;;;;;;4.13;3.30;;;;;;;;;;5072909;28;20233;-91
2023/03/19 05:50:44;;;;;;;3.20;2.90;;;;;;;;;;5073506;28;20216;-91
2023/03/19 05:53:12;;;;;;;4.50;2.87;;;;;;;;;;5072863;28;20255;-91
2023/03/19 05:55:40;;;;;;;3.20;2.90;;;;;;;;;;5073843;28;20205;-91
2023/03/19 05:58:07;;;;;;;3.37;3.07;;;;;;;;;;5073665;28;20320;-91
2023/03/19 06:00:34;;;;;;;3.37;3.07;;;;;;;;;;5055660;28;20213;-91
2023/03/19 06:03:02;;;;;;;4.07;3.27;;;;;;;;;;5053250;28;20234;-91
2023/03/19 06:05:29;;;;;;;5.00;3.40;;;;;;;;;;5054372;28;20218;-91
2023/03/19 06:07:56;;;;;;;4.07;3.43;;;;;;;;;;5057441;28;20723;-91
2023/03/19 06:10:24;;;;;;;4.50;3.20;;;;;;;;;;5057725;28;20256;-91
2023/03/19 06:12:51;;;;;;;6.87;3.40;;;;;;;;;;5056701;28;20238;-91
2023/03/19 06:15:19;;;;;;;8.40;4.10;;;;;;;;;;5057079;28;20202;-91
2023/03/19 06:17:47;;;;;;;5.50;3.43;;;;;;;;;;5036987;28;20288;-91
2023/03/19 06:20:14;;;;;;;4.17;3.40;;;;;;;;;;5069844;28;20237;-91
2023/03/19 06:22:41;;;;;;;5.63;3.33;;;;;;;;;;5056458;28;20241;-91
2023/03/19 06:25:08;;;;;;;5.27;3.67;;;;;;;;;;5056994;28;20236;-91
2023/03/19 06:27:37;;;;;;;5.57;3.00;;;;;;;;;;5056361;28;20243;-90
2023/03/19 06:30:05;;;;;;;4.63;3.30;;;;;;;;;;5070045;28;20300;-90
2023/03/19 06:32:32;;;;;;;4.33;3.17;;;;;;;;;;5076043;28;20709;-90
2023/03/19 06:35:10;;;;;;;5.27;3.10;;;;;;;;;;5077529;28;20236;-91
2023/03/19 06:37:37;;;;;;;4.10;3.27;;;;;;;;;;5076563;28;20256;-90
2023/03/19 06:40:05;;;;;;;3.80;3.40;;;;;;;;;;5063187;28;20233;-90
2023/03/19 06:42:32;;;;;;;5.00;3.43;;;;;;;;;;5055856;28;20316;-90
2023/03/19 06:45:01;;;;;;;4.47;3.13;;;;;;;;;;5056970;28;20307;-89
2023/03/19 06:47:30;;;;;;;4.20;3.20;;;;;;;;;;5056738;28;20316;-89
2023/03/19 06:49:58;;;;;;;6.60;3.70;;;;;;;;;;5056389;28;20218;-87
2023/03/19 06:52:26;;;;;;;5.13;3.33;;;;;;;;;;5055414;28;20782;-87
2023/03/19 06:54:53;;;;;;;3.70;3.40;;;;;;;;;;5056248;28;20259;-87
2023/03/19 06:57:22;;;;;;;7.23;3.23;;;;;;;;;;5055972;28;20245;-88
2023/03/19 06:59:50;;;;;;;3.83;3.00;;;;;;;;;;5056858;28;20296;-87
2023/03/19 07:02:18;;;;;;;5.93;3.20;;;;;;;;;;5063725;28;20225;-89
2023/03/19 07:04:48;;;;;;;4.43;3.17;;;;;;;;;;5057764;28;20230;-88
2023/03/19 07:07:15;;;;;;;7.00;3.30;;;;;;;;;;5055220;28;20238;-84
2023/03/19 07:09:42;;;;;;;5.70;3.43;;;;;;;;;;5054752;28;20257;-84
2023/03/19 07:12:10;;;;;;;3.30;3.00;;;;;;;;;;5055025;28;20241;-84
2023/03/19 07:14:39;;;;;;;4.13;3.23;;;;;;;;;;5056304;28;20206;-88
2023/03/19 07:17:06;;;;;;;5.10;2.93;;;;;;;;;;5055372;28;20321;-88
2023/03/19 07:19:35;;;;;;;4.60;3.00;;;;;;;;;;5056271;28;20694;-88
2023/03/19 07:22:02;;;;;;;5.93;3.37;;;;;;;;;;5056279;28;20712;-89
2023/03/19 07:24:38;;;;;;;3.70;3.40;;;;;;;;;;5070390;28;20217;-88
2023/03/19 07:27:06;;;;;;;6.90;3.80;;;;;;;;;;5064666;28;20233;-87
2023/03/19 07:29:33;;;;;;;6.87;4.07;;;;;;;;;;5055802;28;20308;-88
2023/03/19 07:32:00;;;;;;;3.60;3.23;;;;;;;;;;5054754;28;20241;-88
2023/03/19 07:34:27;;;;;;;3.83;3.50;;;;;;;;;;5055574;28;20202;-88
2023/03/19 07:36:56;;;;;;;4.83;3.47;;;;;;;;;;5055476;28;20242;-88
2023/03/19 07:39:23;;;;;;;5.13;3.30;;;;;;;;;;5053090;28;20226;-87
2023/03/19 07:41:50;;;;;;;4.53;3.30;;;;;;;;;;5049966;28;20567;-88
2023/03/19 07:44:18;;;;;;;3.67;3.03;;;;;;;;;;5055122;28;20202;-88
2023/03/19 07:46:45;;;;;;;4.07;3.10;;;;;;;;;;5054538;28;20281;-88
2023/03/19 07:49:12;;;;;;;4.83;3.10;;;;;;;;;;5057042;28;20242;-90
2023/03/19 07:51:39;;;;;;;4.37;3.13;;;;;;;;;;5054548;28;20210;-90
2023/03/19 07:54:08;;;;;;;4.37;3.00;;;;;;;;;;5055054;28;20229;-90
2023/03/19 07:56:35;;;;;;;5.70;3.40;;;;;;;;;;5055030;28;20205;-90
2023/03/19 07:59:02;;;;;;;5.20;3.20;;;;;;;;;;5054775;28;20743;-89
2023/03/19 08:01:29;;;;;;;3.10;2.80;;;;;;;;;;5054505;28;20210;-90
2023/03/19 08:03:56;;;;;;;4.67;3.20;;;;;;;;;;5054380;28;20241;-89
2023/03/19 08:06:23;;;;;;;5.43;3.03;;;;;;;;;;5057681;28;20633;-90
2023/03/19 08:08:50;;;;;;;9.20;3.23;;;;;;;;;;5066731;28;20264;-91
2023/03/19 08:11:18;;;;;;;4.60;3.47;;;;;;;;;;5058948;28;20559;-90
2023/03/19 08:13:46;;;;;;;7.47;3.10;;;;;;;;;;5054410;28;20237;-90
2023/03/19 08:16:13;;;;;;;3.70;2.87;;;;;;;;;;5060618;28;20202;-90
2023/03/19 08:18:41;;;;;;;4.93;3.00;;;;;;;;;;5055225;28;20325;-91
2023/03/19 08:21:08;;;;;;;3.50;3.17;;;;;;;;;;5055131;28;20651;-91
2023/03/19 08:23:37;;;;;;;5.20;2.90;;;;;;;;;;5055484;28;20229;-92
2023/03/19 08:26:05;;;;;;;4.53;2.90;;;;;;;;;;5054307;28;20229;-91
2023/03/19 08:28:34;;;;;;;5.27;3.03;;;;;;;;;;5056688;28;20732;-93
2023/03/19 08:31:06;;;;;;;4.10;3.00;;;;;;;;;;5061303;28;20226;-93
2023/03/19 08:33:33;;;;;;;3.53;2.90;;;;;;;;;;5060111;28;20245;-90
2023/03/19 08:36:04;;;;;;;4.57;2.87;;;;;;;;;;5058021;28;20202;-94
2023/03/19 08:38:32;;;;;;;4.90;3.03;;;;;;;;;;5059416;28;20237;-93
2023/03/19 08:41:05;;;;;;;3.30;3.00;;;;;;;;;;5057421;28;20198;-92
2023/03/19 08:43:35;;;;;;;6.53;2.80;;;;;;;;;;5056195;28;20234;-92
2023/03/19 08:46:02;;;;;;;4.47;3.07;;;;;;;;;;5057502;28;20285;-91
2023/03/19 08:48:29;;;;;;;6.87;3.20;;;;;;;;;;5055409;28;20624;-92
2023/03/19 08:50:57;;;;;;;4.17;2.80;;;;;;;;;;5056011;28;20209;-91
2023/03/19 08:53:29;;;;;;;5.40;2.77;;;;;;;;;;5054558;28;20233;-93
2023/03/19 08:55:57;;;;;;;3.93;2.67;;;;;;;;;;5056079;28;20206;-93
2023/03/19 08:58:25;;;;;;;5.03;2.70;;;;;;;;;;5053772;28;20248;-92
2023/03/19 09:00:55;;;;;;;5.00;2.60;;;;;;;;;;5054169;28;20217;-92
2023/03/19 09:03:30;;;;;;;4.60;2.30;;;;;;;;;;5054612;28;20244;-93
2023/03/19 09:05:59;;;;;;;2.87;2.30;;;;;;;;;;5053997;28;20225;-90
2023/03/19 09:08:26;;;;;;;3.17;2.40;;;;;;;;;;5053084;28;20265;-89
2023/03/19 09:10:54;;;;;;;2.50;2.30;;;;;;;;;;5053712;28;20202;-90
2023/03/19 09:13:24;;;;;;;4.70;2.50;;;;;;;;;;5052777;28;20253;-90
2023/03/19 09:15:51;;;;;;;5.70;2.67;;;;;;;;;;5054675;28;20201;-91
2023/03/19 09:18:22;;;;;;;6.93;2.40;;;;;;;;;;5055129;28;20291;-91
2023/03/19 09:20:49;;;;;;;3.67;2.53;;;;;;;;;;5055341;28;20206;-92
2023/03/19 09:23:17;;;;;;;6.03;2.80;;;;;;;;;;5053820;28;20230;-91
2023/03/19 09:25:44;;;;;;;4.67;2.43;;;;;;;;;;5054738;28;20222;-93
2023/03/19 09:28:11;;;;;;;4.23;2.33;;;;;;;;;;5056124;28;20238;-93
2023/03/19 09:30:39;;;;;;;4.57;2.70;;;;;;;;;;5057151;28;20222;-93
2023/03/19 09:33:06;;;;;;;2.20;2.00;;;;;;;;;;5057132;28;20234;-95
2023/03/19 09:35:37;;;;;;;6.57;2.40;;;;;;;;;;5059130;28;20241;-95
2023/03/19 09:38:04;;;;;;;3.80;2.33;;;;;;;;;;5056029;28;20229;-92
2023/03/19 09:40:35;;;;;;;4.13;2.73;;;;;;;;;;5055660;28;20198;-92
2023/03/19 09:43:06;;;;;;;2.83;2.60;;;;;;;;;;5058951;28;20240;-95
2023/03/19 09:45:33;;;;;;;2.60;2.40;;;;;;;;;;5055230;28;20206;-93
2023/03/19 09:48:05;;;;;;;2.90;2.13;;;;;;;;;;5056302;28;20238;-93
2023/03/19 09:50:42;;;;;;;3.30;2.67;;;;;;;;;;5059297;28;20222;-95
2023/03/19 09:53:17;;;;;;;3.20;1.97;;;;;;;;;;5056105;28;20693;-95
2023/03/19 09:55:47;;;;;;;4.33;2.33;;;;;;;;;;5057671;28;20201;-95
2023/03/19 09:58:25;;;;;;;3.07;2.43;;;;;;;;;;5057966;28;20252;-96
2023/03/19 10:01:01;;;;;;;3.33;2.40;;;;;;;;;;5056185;28;20293;-93
2023/03/19 10:03:33;;;;;;;2.90;2.10;;;;;;;;;;5053981;28;20269;-96
2023/03/19 10:06:06;;;;;;;3.00;2.00;;;;;;;;;;5053421;28;20229;-85
2023/03/19 10:08:41;;;;;;;5.33;2.10;;;;;;;;;;5052560;28;20848;-95
2023/03/19 10:11:23;;;;;;;2.97;2.40;;;;;;;;;;5053326;28;20658;-96
2023/03/19 10:13:57;;;;;;;4.53;2.50;;;;;;;;;;5052761;28;20234;-96
2023/03/19 10:16:25;;;;;;;3.30;2.07;;;;;;;;;;5053596;28;20201;-96
2023/03/19 10:18:53;;;;;;;4.13;2.20;;;;;;;;;;5053025;28;20253;-96
2023/03/19 10:21:22;;;;;;;2.27;2.07;;;;;;;;;;5053514;28;20206;-96
2023/03/19 10:23:53;;;;;;;3.60;2.13;;;;;;;;;;5053090;28;20233;-94
2023/03/19 10:26:22;;;;;;;3.63;2.00;;;;;;;;;;5053039;28;20210;-96
2023/03/19 10:29:03;;;;;;;2.30;2.00;;;;;;;;;;5052678;28;20295;-96
2023/03/19 10:31:38;;;;;;;4.10;2.97;;;;;;;;;;5053581;28;20297;-96
2023/03/19 10:34:30;;;;;;;5.75;2.15;;;;;;;;;;5052774;28;20340;-96
2023/03/19 10:37:00;;;;;;;2.65;1.80;;;;;;;;;;5052814;28;20655;-96
2023/03/19 10:39:28;;;;;;;4.53;1.80;;;;;;;;;;5053290;28;20218;-96
2023/03/19 10:42:17;;;;;;;2.90;1.65;;;;;;;;;;5052189;28;20241;-92
2023/03/19 10:44:47;;;;;;;1.88;1.58;;;;;;;;;;5052804;28;20194;-94
2023/03/19 10:47:16;;;;;;;1.73;1.63;;;;;;;;;;5052093;28;20241;-95
2023/03/19 10:49:43;;;;;;;1.80;1.67;;;;;;;;;;5052493;28;20218;-94
2023/03/19 10:52:18;;;;;;;3.00;1.80;;;;;;;;;;5052532;28;20238;-96
2023/03/19 10:55:02;;;;;;;2.42;1.63;;;;;;;;;;5056434;28;20634;-94
2023/03/19 10:57:31;;;;;;;3.85;2.00;;;;;;;;;;5056049;28;20719;-92
2023/03/19 11:00:03;;;;;;;2.53;1.70;;;;;;;;;;5056066;28;20226;-92
2023/03/19 11:02:31;;;;;;;3.47;1.90;;;;;;;;;;5055406;28;20308;-93
2023/03/19 11:05:08;;;;;;;3.53;1.95;;;;;;;;;;5066338;28;20236;-92
2023/03/19 11:07:36;;;;;;;2.95;2.10;;;;;;;;;;5075527;28;20236;-94
2023/03/19 11:10:03;;;;;;;3.25;2.13;;;;;;;;;;5098092;22;20217;-81
2023/03/19 11:12:34;;;;;;;3.67;2.30;;;;;;;;;;5072283;28;20229;-81
2023/03/19 11:15:04;;;;;;;3.03;2.38;;;;;;;;;;5082983;28;20215;-81
2023/03/19 11:17:38;;;;;;;4.90;2.20;;;;;;;;;;5093137;28;20278;-81
2023/03/19 11:20:19;;;;;;;2.92;2.13;;;;;;;;;;5093295;28;20318;-82
2023/03/19 11:22:46;;;;;;;2.42;2.17;;;;;;;;;;5092318;28;20280;-81
2023/03/19 11:25:17;;;;;;;4.90;2.45;;;;;;;;;;5082734;28;20255;-81
2023/03/19 11:27:57;;;;;;;2.72;2.38;;;;;;;;;;5072549;28;20233;-82
2023/03/19 11:30:24;;;;;;;5.50;2.47;;;;;;;;;;5072311;28;20251;-81
2023/03/19 11:33:01;;;;;;;3.22;2.20;;;;;;;;;;5072143;28;20229;-82
2023/03/19 11:35:30;;;;;;;3.58;2.13;;;;;;;;;;5072851;28;20216;-84
2023/03/19 11:37:59;;;;;;;2.65;2.13;;;;;;;;;;5072511;28;20661;-83
2023/03/19 11:40:41;;;;;;;4.47;2.45;;;;;;;;;;5072393;28;20229;-83
2023/03/19 11:43:28;;;;;;;5.55;2.78;;;;;;;;;;5071919;28;20320;-83
2023/03/19 11:45:59;;;;;;;3.35;2.20;;;;;;;;;;5072798;28;20690;-83
2023/03/19 11:48:32;;;;;;;4.18;2.50;;;;;;;;;;5072437;28;20237;-83
2023/03/19 11:51:01;;;;;;;4.38;2.75;;;;;;;;;;5079450;28;20228;-83
2023/03/19 11:53:30;;;;;;;2.38;1.98;;;;;;;;;;5071685;28;20233;-83
2023/03/19 11:56:09;;;;;;;4.70;2.30;;;;;;;;;;5073901;28;20216;-83
2023/03/19 11:58:57;;;;;;;3.65;2.80;;;;;;;;;;5076869;28;20239;-83
2023/03/19 12:01:40;;;;;;;4.10;2.30;;;;;;;;;;5061253;28;20225;-83
2023/03/19 12:04:22;;;;;;;3.10;2.40;;;;;;;;;;5071643;28;20268;-83
2023/03/19 12:06:54;;;;;;;3.20;2.15;;;;;;;;;;5039275;28;20222;-84
2023/03/19 12:09:24;;;;;;;2.33;2.13;;;;;;;;;;5052354;28;20289;-83
2023/03/19 12:11:54;;;;;;;2.45;2.03;;;;;;;;;;5051147;28;20557;-83
2023/03/19 12:14:26;;;;;;;1.90;1.65;;;;;;;;;;5067759;28;20205;-84
2023/03/19 12:17:03;;;;;;;2.05;1.70;;;;;;;;;;5091659;28;20188;-83
2023/03/19 12:19:38;;;;;;;3.17;1.90;;;;;;;;;;5092646;28;20228;-82
2023/03/19 12:22:10;;;;;;;2.55;2.00;;;;;;;;;;5091621;28;20224;-83
2023/03/19 12:24:45;;;;;;;2.92;2.00;;;;;;;;;;5092392;28;20197;-82
2023/03/19 12:27:19;;;;;;;2.78;2.00;;;;;;;;;;5057014;28;20233;-83
2023/03/19 12:29:51;;;;;;;2.20;2.00;;;;;;;;;;5055508;28;20217;-82
2023/03/19 12:32:26;;;;;;;2.95;1.95;;;;;;;;;;5070849;28;20233;-82
2023/03/19 12:34:56;;;;;;;4.88;2.08;;;;;;;;;;5078149;28;20636;-82
2023/03/19 12:37:27;;;;;;;3.45;2.00;;;;;;;;;;5091589;28;20282;-82
2023/03/19 12:40:00;;;;;;;2.65;1.80;;;;;;;;;;5092290;28;20259;-83
2023/03/19 12:42:29;;;;;;;2.83;1.95;;;;;;;;;;5091013;28;20228;-82
2023/03/19 12:44:58;;;;;;;4.13;1.90;;;;;;;;;;5091796;28;20213;-82
2023/03/19 12:47:30;;;;;;;2.95;1.92;;;;;;;;;;5075773;28;20237;-82
2023/03/19 12:49:59;;;;;;;1.73;1.58;;;;;;;;;;5071259;28;20731;-82
2023/03/19 12:52:30;;;;;;;1.60;1.50;;;;;;;;;;5070586;28;20237;-82
2023/03/19 12:55:00;;;;;;;4.43;2.13;;;;;;;;;;5056480;28;20213;-82
2023/03/19 12:57:32;;;;;;;2.80;2.10;;;;;;;;;;5068456;28;20241;-82
2023/03/19 13:00:01;;;;;;;2.28;1.98;;;;;;;;;;5071477;28;20232;-83
2023/03/19 13:02:33;;;;;;;2.35;2.10;;;;;;;;;;5070794;28;20237;-82
2023/03/19 13:05:04;;;;;;;2.40;1.75;;;;;;;;;;5070880;28;20186;-82
2023/03/19 13:07:34;;;;;;;2.63;2.42;;;;;;;;;;5070829;28;20233;-83
2023/03/19 13:10:04;;;;;;;3.08;2.30;;;;;;;;;;5068960;28;21040;-82
2023/03/19 13:12:32;;;;;;;2.30;1.90;;;;;;;;;;5070589;28;20232;-82
2023/03/19 13:15:03;;;;;;;3.72;2.50;;;;;;;;;;5070246;28;20697;-82
2023/03/19 13:17:36;;;;;;;3.65;2.35;;;;;;;;;;5083665;28;20224;-85
2023/03/19 13:20:06;;;;;;;3.72;2.25;;;;;;;;;;5072290;28;20222;-82
2023/03/19 13:22:36;;;;;;;3.83;2.33;;;;;;;;;;5070352;28;20240;-82
2023/03/19 13:25:04;;;;;;;4.25;2.20;;;;;;;;;;5081562;28;20198;-82
2023/03/19 13:27:33;;;;;;;2.67;2.17;;;;;;;;;;5070617;28;20286;-82
2023/03/19 13:30:02;;;;;;;4.43;2.13;;;;;;;;;;5070563;28;20225;-82
2023/03/19 13:32:35;;;;;;;2.88;2.42;;;;;;;;;;5069806;28;20236;-82
2023/03/19 13:35:25;;;;;;;2.72;2.50;;;;;;;;;;5066596;28;20198;-82
2023/03/19 13:37:57;;;;;;;2.55;2.33;;;;;;;;;;5079608;28;20243;-83
2023/03/19 13:40:45;;;;;;;3.53;2.67;;;;;;;;;;5090803;28;20213;-87
2023/03/19 13:43:39;;;;;;;5.03;3.47;;;;;;;;;;5063414;28;20233;-82
2023/03/19 13:46:28;;;;;;;4.65;3.00;;;;;;;;;;5004233;28;20209;-83
2023/03/19 13:48:55;;;;;;;4.68;3.67;;;;;;;;;;5050161;28;20233;-82
2023/03/19 13:51:30;;;;;;;6.13;3.22;;;;;;;;;;5050838;28;20244;-81
2023/03/19 13:54:07;;;;;;;3.83;2.80;;;;;;;;;;5053344;28;20236;-81
2023/03/19 13:56:54;;;;;;;3.47;2.63;;;;;;;;;;5053788;28;20206;-81
2023/03/19 13:59:26;;;;;;;3.88;2.40;;;;;;;;;;5090517;28;20224;-81
2023/03/19 14:01:53;;;;;;;2.53;2.30;;;;;;;;;;5089845;28;20185;-81
2023/03/19 14:04:23;;;;;;;2.45;2.25;;;;;;;;;;5091086;28;20189;-82
2023/03/19 14:06:52;;;;;;;2.17;1.95;;;;;;;;;;5078845;28;20231;-81
2023/03/19 14:09:31;;;;;;;2.53;2.03;;;;;;;;;;5090701;28;20239;-81
2023/03/19 14:12:09;;;;;;;2.10;1.90;;;;;;;;;;5072057;28;20315;-82
2023/03/19 14:14:40;;;;;;;2.55;2.00;;;;;;;;;;5071024;28;20196;-82
2023/03/19 14:17:14;;;;;;;2.25;2.10;;;;;;;;;;5073934;28;20229;-82
2023/03/19 14:19:41;;;;;;;2.20;2.00;;;;;;;;;;5090420;28;20255;-82
2023/03/19 14:22:11;;;;;;;3.53;2.72;;;;;;;;;;5089661;28;20240;-82
2023/03/19 14:24:40;;;;;;;2.47;2.20;;;;;;;;;;5091065;28;20185;-81
2023/03/19 14:27:14;;;;;;;3.38;1.98;;;;;;;;;;5091802;28;20274;-81
2023/03/19 14:29:43;;;;;;;2.53;1.98;;;;;;;;;;5094809;28;20235;-82
2023/03/19 14:32:16;;;;;;;3.05;2.03;;;;;;;;;;5092772;28;20236;-82
2023/03/19 14:34:44;;;;;;;3.25;2.50;;;;;;;;;;5094673;28;20232;-81
2023/03/19 14:37:20;;;;;;;2.92;2.33;;;;;;;;;;5093308;28;20289;-80
2023/03/19 14:39:49;;;;;;;3.10;2.35;;;;;;;;;;5094257;28;20293;-81
2023/03/19 14:42:19;;;;;;;2.35;2.00;;;;;;;;;;5091926;28;20278;-81
2023/03/19 14:45:07;;;;;;;2.80;2.08;;;;;;;;;;5073921;28;20196;-82
2023/03/19 14:47:49;;;;;;;2.95;2.28;;;;;;;;;;5073610;28;20240;-84
2023/03/19 14:50:25;;;;;;;2.90;2.63;;;;;;;;;;5073427;28;20225;-84
2023/03/19 14:52:57;;;;;;;3.35;2.40;;;;;;;;;;5072858;28;20240;-84
2023/03/19 14:55:33;;;;;;;2.63;2.40;;;;;;;;;;5073619;28;20193;-83
2023/03/19 14:58:01;;;;;;;2.95;2.05;;;;;;;;;;5081145;28;20227;-84